Etusivu
METAR-TAF:

METAR-TAF

Lentoasemat :

Charlotte, Michigan, Yhdysvallat

Leveyspiiri: 42-34-28N, Pituuspiiri: 084-48-41W, korkeus merenpinnasta: 271 m

Tämänhetkinen sää

Tämä raportti tehtiin 17 minuuttia sitten, kello 10.36 UTC
Tuuli 8 kn lännestä puuskistuen 14 kn:hen
Lämpötila -2°C
Kosteus 86%
Ilmanpaine 1011 hPa
Näkyvyys: 8.0 km
Pilvistä 1500 ft:n korkeudessa
heikkoa lumisadetta

METAR: KFPK 151036Z AUTO 27008G14KT 5SM -SN OVC015 M02/M04 A2986 RMK AO2 T10171045

Aika: 05:53 (10:53 UTC)


TAF: puuttuu

Säähavainnot ja -ennusteet yli 4000 lentoasemalta (METAR- ja TAF-raportit).

Käytössä olevat sääasemat on merkitty karttaan keltaisilla ja punaisilla pisteillä.

Aseta hiiri pisteen päälle nähdäksesi sääaseman nimen.

Klikkaa sitten nähdäksesi säähavainnot ja -ennusteet.

Kartan vaihtaminen: klikkaa mustalla rastilla varustettuja vihreitä pisteitä, niin voit zoomata sisään; viivalla varustettua vihreää pistettä, niin voit zoomata ulos tai vihreitä nuolia, niin pääset viereisille kartoille.


METAR-TAF: